sensor_id;sensor_type;location;lat;lon;timestamp;P1;durP1;ratioP1;P2;durP2;ratioP2
26413;SDS011;14108;53.668;10.288;2022-12-07T00:01:17;18.65;;;11.43;;
26413;SDS011;14108;53.668;10.288;2022-12-07T00:03:46;19.87;;;11.80;;
26413;SDS011;14108;53.668;10.288;2022-12-07T00:06:15;20.95;;;12.10;;
26413;SDS011;14108;53.668;10.288;2022-12-07T00:08:43;22.52;;;12.70;;
26413;SDS011;14108;53.668;10.288;2022-12-07T00:11:12;24.73;;;13.57;;
26413;SDS011;14108;53.668;10.288;2022-12-07T00:13:40;21.80;;;12.57;;
26413;SDS011;14108;53.668;10.288;2022-12-07T00:16:09;22.13;;;13.18;;
26413;SDS011;14108;53.668;10.288;2022-12-07T00:18:38;23.17;;;13.90;;
26413;SDS011;14108;53.668;10.288;2022-12-07T00:21:06;22.20;;;13.65;;
26413;SDS011;14108;53.668;10.288;2022-12-07T00:23:35;26.65;;;14.65;;
26413;SDS011;14108;53.668;10.288;2022-12-07T00:26:04;23.40;;;14.35;;
26413;SDS011;14108;53.668;10.288;2022-12-07T00:28:31;23.87;;;13.93;;
26413;SDS011;14108;53.668;10.288;2022-12-07T00:31:00;24.35;;;14.20;;
26413;SDS011;14108;53.668;10.288;2022-12-07T00:33:28;34.40;;;17.45;;
26413;SDS011;14108;53.668;10.288;2022-12-07T00:35:56;31.83;;;16.85;;
26413;SDS011;14108;53.668;10.288;2022-12-07T00:38:24;32.00;;;18.12;;
26413;SDS011;14108;53.668;10.288;2022-12-07T00:40:56;28.85;;;15.55;;
26413;SDS011;14108;53.668;10.288;2022-12-07T00:43:24;26.08;;;16.00;;
26413;SDS011;14108;53.668;10.288;2022-12-07T00:45:52;26.20;;;15.05;;
26413;SDS011;14108;53.668;10.288;2022-12-07T00:48:20;25.62;;;15.00;;
26413;SDS011;14108;53.668;10.288;2022-12-07T00:50:47;26.37;;;14.93;;
26413;SDS011;14108;53.668;10.288;2022-12-07T00:53:15;29.20;;;16.75;;
26413;SDS011;14108;53.668;10.288;2022-12-07T00:55:42;31.37;;;14.80;;
26413;SDS011;14108;53.668;10.288;2022-12-07T00:58:10;25.92;;;14.70;;
26413;SDS011;14108;53.668;10.288;2022-12-07T01:00:38;24.15;;;13.62;;
26413;SDS011;14108;53.668;10.288;2022-12-07T01:03:08;26.30;;;16.00;;
26413;SDS011;14108;53.668;10.288;2022-12-07T01:05:37;26.67;;;16.37;;
26413;SDS011;14108;53.668;10.288;2022-12-07T01:08:05;27.65;;;16.12;;
26413;SDS011;14108;53.668;10.288;2022-12-07T01:10:32;30.02;;;17.10;;
26413;SDS011;14108;53.668;10.288;2022-12-07T01:12:59;25.95;;;15.63;;
26413;SDS011;14108;53.668;10.288;2022-12-07T01:15:26;30.33;;;16.73;;
26413;SDS011;14108;53.668;10.288;2022-12-07T01:17:54;28.33;;;15.25;;
26413;SDS011;14108;53.668;10.288;2022-12-07T01:20:21;25.37;;;15.70;;
26413;SDS011;14108;53.668;10.288;2022-12-07T01:22:48;25.92;;;14.57;;
26413;SDS011;14108;53.668;10.288;2022-12-07T01:25:16;28.62;;;14.93;;
26413;SDS011;14108;53.668;10.288;2022-12-07T01:27:43;27.17;;;15.80;;
26413;SDS011;14108;53.668;10.288;2022-12-07T01:30:12;31.83;;;17.35;;
26413;SDS011;14108;53.668;10.288;2022-12-07T01:32:40;26.17;;;14.40;;
26413;SDS011;14108;53.668;10.288;2022-12-07T01:35:07;24.45;;;14.85;;
26413;SDS011;14108;53.668;10.288;2022-12-07T01:37:35;28.95;;;16.52;;
26413;SDS011;14108;53.668;10.288;2022-12-07T01:40:04;23.83;;;14.75;;
26413;SDS011;14108;53.668;10.288;2022-12-07T01:42:33;27.15;;;15.68;;
26413;SDS011;14108;53.668;10.288;2022-12-07T01:48:14;22.77;;;13.70;;
26413;SDS011;14108;53.668;10.288;2022-12-07T01:50:45;22.37;;;14.02;;
26413;SDS011;14108;53.668;10.288;2022-12-07T01:53:16;23.15;;;13.05;;
26413;SDS011;14108;53.668;10.288;2022-12-07T01:55:44;27.52;;;13.18;;
26413;SDS011;14108;53.668;10.288;2022-12-07T01:58:15;25.00;;;12.75;;
26413;SDS011;14108;53.668;10.288;2022-12-07T02:00:43;20.88;;;12.15;;
26413;SDS011;14108;53.668;10.288;2022-12-07T02:03:13;22.92;;;11.98;;
26413;SDS011;14108;53.668;10.288;2022-12-07T02:05:44;26.83;;;12.63;;
26413;SDS011;14108;53.668;10.288;2022-12-07T02:08:12;21.73;;;12.13;;
26413;SDS011;14108;53.668;10.288;2022-12-07T02:10:40;18.60;;;10.52;;
26413;SDS011;14108;53.668;10.288;2022-12-07T02:13:09;18.37;;;10.02;;
26413;SDS011;14108;53.668;10.288;2022-12-07T02:15:44;19.37;;;11.30;;
26413;SDS011;14108;53.668;10.288;2022-12-07T02:18:30;18.25;;;9.90;;
26413;SDS011;14108;53.668;10.288;2022-12-07T02:21:05;19.73;;;11.18;;
26413;SDS011;14108;53.668;10.288;2022-12-07T02:26:41;15.75;;;9.85;;
26413;SDS011;14108;53.668;10.288;2022-12-07T02:29:33;17.25;;;10.55;;
26413;SDS011;14108;53.668;10.288;2022-12-07T02:32:06;15.02;;;8.68;;
26413;SDS011;14108;53.668;10.288;2022-12-07T02:34:39;18.08;;;8.85;;
26413;SDS011;14108;53.668;10.288;2022-12-07T02:37:14;31.60;;;9.93;;
26413;SDS011;14108;53.668;10.288;2022-12-07T02:39:48;18.70;;;9.38;;
26413;SDS011;14108;53.668;10.288;2022-12-07T02:44:49;12.27;;;7.90;;
26413;SDS011;14108;53.668;10.288;2022-12-07T02:47:18;16.12;;;8.10;;
26413;SDS011;14108;53.668;10.288;2022-12-07T02:49:47;12.93;;;8.07;;
26413;SDS011;14108;53.668;10.288;2022-12-07T02:52:15;13.48;;;6.60;;
26413;SDS011;14108;53.668;10.288;2022-12-07T02:54:42;11.15;;;6.20;;
26413;SDS011;14108;53.668;10.288;2022-12-07T02:57:14;11.90;;;7.03;;
26413;SDS011;14108;53.668;10.288;2022-12-07T03:00:00;11.95;;;6.62;;
26413;SDS011;14108;53.668;10.288;2022-12-07T03:02:33;16.87;;;7.00;;
26413;SDS011;14108;53.668;10.288;2022-12-07T03:05:15;13.93;;;6.55;;
26413;SDS011;14108;53.668;10.288;2022-12-07T03:07:58;13.57;;;5.78;;
26413;SDS011;14108;53.668;10.288;2022-12-07T03:10:35;11.30;;;6.55;;
26413;SDS011;14108;53.668;10.288;2022-12-07T03:13:12;11.37;;;6.73;;
26413;SDS011;14108;53.668;10.288;2022-12-07T03:15:48;12.73;;;6.10;;
26413;SDS011;14108;53.668;10.288;2022-12-07T03:18:20;9.77;;;5.78;;
26413;SDS011;14108;53.668;10.288;2022-12-07T03:20:50;13.90;;;5.85;;
26413;SDS011;14108;53.668;10.288;2022-12-07T03:23:19;10.77;;;5.55;;
26413;SDS011;14108;53.668;10.288;2022-12-07T03:25:50;14.73;;;5.15;;
26413;SDS011;14108;53.668;10.288;2022-12-07T03:28:22;8.20;;;4.72;;
26413;SDS011;14108;53.668;10.288;2022-12-07T03:30:54;12.15;;;5.18;;
26413;SDS011;14108;53.668;10.288;2022-12-07T03:33:25;10.20;;;4.70;;
26413;SDS011;14108;53.668;10.288;2022-12-07T03:35:58;7.20;;;4.22;;
26413;SDS011;14108;53.668;10.288;2022-12-07T03:38:31;10.45;;;4.65;;
26413;SDS011;14108;53.668;10.288;2022-12-07T03:41:05;6.10;;;3.83;;
26413;SDS011;14108;53.668;10.288;2022-12-07T03:43:34;6.35;;;3.83;;
26413;SDS011;14108;53.668;10.288;2022-12-07T03:46:05;7.65;;;3.85;;
26413;SDS011;14108;53.668;10.288;2022-12-07T03:48:40;6.97;;;3.53;;
26413;SDS011;14108;53.668;10.288;2022-12-07T03:51:13;6.68;;;3.28;;
26413;SDS011;14108;53.668;10.288;2022-12-07T03:53:48;6.05;;;3.00;;
26413;SDS011;14108;53.668;10.288;2022-12-07T03:56:20;7.87;;;3.35;;
26413;SDS011;14108;53.668;10.288;2022-12-07T03:58:49;5.55;;;3.40;;
26413;SDS011;14108;53.668;10.288;2022-12-07T04:01:18;12.95;;;3.17;;
26413;SDS011;14108;53.668;10.288;2022-12-07T04:03:45;5.03;;;2.97;;
26413;SDS011;14108;53.668;10.288;2022-12-07T04:06:12;5.05;;;2.90;;
26413;SDS011;14108;53.668;10.288;2022-12-07T04:08:40;7.90;;;3.47;;
26413;SDS011;14108;53.668;10.288;2022-12-07T04:11:07;8.10;;;3.35;;
26413;SDS011;14108;53.668;10.288;2022-12-07T04:13:34;8.95;;;2.70;;
26413;SDS011;14108;53.668;10.288;2022-12-07T04:16:43;6.20;;;3.30;;
26413;SDS011;14108;53.668;10.288;2022-12-07T04:19:11;7.35;;;3.17;;
26413;SDS011;14108;53.668;10.288;2022-12-07T04:21:38;6.22;;;2.97;;
26413;SDS011;14108;53.668;10.288;2022-12-07T04:24:06;9.90;;;3.28;;
26413;SDS011;14108;53.668;10.288;2022-12-07T04:26:33;6.53;;;3.03;;
26413;SDS011;14108;53.668;10.288;2022-12-07T04:29:00;6.95;;;2.92;;
26413;SDS011;14108;53.668;10.288;2022-12-07T04:31:28;7.32;;;3.62;;
26413;SDS011;14108;53.668;10.288;2022-12-07T04:33:55;5.90;;;3.30;;
26413;SDS011;14108;53.668;10.288;2022-12-07T04:36:22;5.45;;;3.10;;
26413;SDS011;14108;53.668;10.288;2022-12-07T04:38:49;4.78;;;2.97;;
26413;SDS011;14108;53.668;10.288;2022-12-07T04:41:18;6.12;;;3.15;;
26413;SDS011;14108;53.668;10.288;2022-12-07T04:43:52;5.47;;;3.15;;
26413;SDS011;14108;53.668;10.288;2022-12-07T04:46:21;4.90;;;3.50;;
26413;SDS011;14108;53.668;10.288;2022-12-07T04:48:48;5.20;;;3.72;;
26413;SDS011;14108;53.668;10.288;2022-12-07T04:51:16;7.53;;;3.15;;
26413;SDS011;14108;53.668;10.288;2022-12-07T04:53:47;12.77;;;4.00;;
26413;SDS011;14108;53.668;10.288;2022-12-07T04:56:15;6.25;;;3.40;;
26413;SDS011;14108;53.668;10.288;2022-12-07T04:58:44;7.03;;;4.18;;
26413;SDS011;14108;53.668;10.288;2022-12-07T05:01:12;7.97;;;4.37;;
26413;SDS011;14108;53.668;10.288;2022-12-07T05:03:39;7.00;;;4.50;;
26413;SDS011;14108;53.668;10.288;2022-12-07T05:06:07;6.78;;;4.00;;
26413;SDS011;14108;53.668;10.288;2022-12-07T05:08:35;5.37;;;3.87;;
26413;SDS011;14108;53.668;10.288;2022-12-07T05:11:02;6.35;;;3.70;;
26413;SDS011;14108;53.668;10.288;2022-12-07T05:13:30;7.95;;;4.22;;
26413;SDS011;14108;53.668;10.288;2022-12-07T05:15:58;6.28;;;4.40;;
26413;SDS011;14108;53.668;10.288;2022-12-07T05:18:25;10.45;;;4.62;;
26413;SDS011;14108;53.668;10.288;2022-12-07T05:20:52;7.22;;;3.95;;
26413;SDS011;14108;53.668;10.288;2022-12-07T05:23:19;6.40;;;3.72;;
26413;SDS011;14108;53.668;10.288;2022-12-07T05:25:47;7.03;;;4.50;;
26413;SDS011;14108;53.668;10.288;2022-12-07T05:28:14;7.45;;;3.62;;
26413;SDS011;14108;53.668;10.288;2022-12-07T05:30:41;5.85;;;3.42;;
26413;SDS011;14108;53.668;10.288;2022-12-07T05:33:08;4.68;;;3.60;;
26413;SDS011;14108;53.668;10.288;2022-12-07T05:35:35;7.87;;;4.20;;
26413;SDS011;14108;53.668;10.288;2022-12-07T05:38:03;6.05;;;3.50;;
26413;SDS011;14108;53.668;10.288;2022-12-07T05:40:30;6.12;;;3.95;;
26413;SDS011;14108;53.668;10.288;2022-12-07T05:42:57;6.53;;;3.78;;
26413;SDS011;14108;53.668;10.288;2022-12-07T05:45:24;6.45;;;4.03;;
26413;SDS011;14108;53.668;10.288;2022-12-07T05:47:52;4.97;;;3.35;;
26413;SDS011;14108;53.668;10.288;2022-12-07T05:50:19;4.78;;;3.37;;
26413;SDS011;14108;53.668;10.288;2022-12-07T05:52:46;7.50;;;3.95;;
26413;SDS011;14108;53.668;10.288;2022-12-07T05:55:14;6.10;;;3.83;;
26413;SDS011;14108;53.668;10.288;2022-12-07T05:57:41;7.00;;;3.65;;
26413;SDS011;14108;53.668;10.288;2022-12-07T06:01:47;6.62;;;4.40;;
26413;SDS011;14108;53.668;10.288;2022-12-07T06:04:15;6.20;;;4.25;;
26413;SDS011;14108;53.668;10.288;2022-12-07T06:06:42;5.53;;;3.78;;
26413;SDS011;14108;53.668;10.288;2022-12-07T06:09:09;6.35;;;3.90;;
26413;SDS011;14108;53.668;10.288;2022-12-07T06:11:38;6.65;;;4.32;;
26413;SDS011;14108;53.668;10.288;2022-12-07T06:14:24;7.20;;;4.45;;
26413;SDS011;14108;53.668;10.288;2022-12-07T06:16:51;6.85;;;4.12;;
26413;SDS011;14108;53.668;10.288;2022-12-07T06:19:18;6.80;;;4.45;;
26413;SDS011;14108;53.668;10.288;2022-12-07T06:21:45;6.57;;;4.15;;
26413;SDS011;14108;53.668;10.288;2022-12-07T06:24:13;7.78;;;4.75;;
26413;SDS011;14108;53.668;10.288;2022-12-07T06:26:42;7.25;;;3.97;;
26413;SDS011;14108;53.668;10.288;2022-12-07T06:29:10;7.50;;;3.90;;
26413;SDS011;14108;53.668;10.288;2022-12-07T06:31:38;8.07;;;4.25;;
26413;SDS011;14108;53.668;10.288;2022-12-07T06:34:06;6.10;;;4.10;;
26413;SDS011;14108;53.668;10.288;2022-12-07T06:36:35;7.75;;;4.30;;
26413;SDS011;14108;53.668;10.288;2022-12-07T06:39:03;7.68;;;4.53;;
26413;SDS011;14108;53.668;10.288;2022-12-07T06:41:31;7.50;;;4.32;;
26413;SDS011;14108;53.668;10.288;2022-12-07T06:43:58;10.85;;;4.43;;
26413;SDS011;14108;53.668;10.288;2022-12-07T06:46:25;6.82;;;4.75;;
26413;SDS011;14108;53.668;10.288;2022-12-07T06:48:52;6.95;;;4.78;;
26413;SDS011;14108;53.668;10.288;2022-12-07T06:51:20;8.80;;;5.35;;
26413;SDS011;14108;53.668;10.288;2022-12-07T06:53:47;12.50;;;5.15;;
26413;SDS011;14108;53.668;10.288;2022-12-07T06:56:14;8.85;;;5.07;;
26413;SDS011;14108;53.668;10.288;2022-12-07T06:58:41;10.52;;;5.18;;
26413;SDS011;14108;53.668;10.288;2022-12-07T07:01:09;8.40;;;4.80;;
26413;SDS011;14108;53.668;10.288;2022-12-07T07:03:37;8.23;;;4.90;;
26413;SDS011;14108;53.668;10.288;2022-12-07T07:06:05;7.43;;;4.90;;
26413;SDS011;14108;53.668;10.288;2022-12-07T07:08:33;9.15;;;5.75;;
26413;SDS011;14108;53.668;10.288;2022-12-07T07:11:01;8.20;;;5.10;;
26413;SDS011;14108;53.668;10.288;2022-12-07T07:13:28;7.32;;;4.55;;
26413;SDS011;14108;53.668;10.288;2022-12-07T07:15:55;7.97;;;5.00;;
26413;SDS011;14108;53.668;10.288;2022-12-07T07:18:22;9.18;;;5.28;;
26413;SDS011;14108;53.668;10.288;2022-12-07T07:20:50;9.20;;;5.40;;
26413;SDS011;14108;53.668;10.288;2022-12-07T07:23:18;7.05;;;4.07;;
26413;SDS011;14108;53.668;10.288;2022-12-07T07:25:45;6.82;;;3.97;;
26413;SDS011;14108;53.668;10.288;2022-12-07T07:28:13;11.73;;;5.25;;
26413;SDS011;14108;53.668;10.288;2022-12-07T07:30:40;27.80;;;5.60;;
26413;SDS011;14108;53.668;10.288;2022-12-07T07:33:07;6.05;;;4.07;;
26413;SDS011;14108;53.668;10.288;2022-12-07T07:35:35;6.30;;;3.92;;
26413;SDS011;14108;53.668;10.288;2022-12-07T07:38:03;12.68;;;4.47;;
26413;SDS011;14108;53.668;10.288;2022-12-07T07:40:30;8.00;;;4.57;;
26413;SDS011;14108;53.668;10.288;2022-12-07T07:42:59;11.75;;;4.75;;
26413;SDS011;14108;53.668;10.288;2022-12-07T07:45:26;7.32;;;4.15;;
26413;SDS011;14108;53.668;10.288;2022-12-07T07:47:54;8.45;;;4.28;;
26413;SDS011;14108;53.668;10.288;2022-12-07T07:50:21;7.28;;;4.18;;
26413;SDS011;14108;53.668;10.288;2022-12-07T07:52:48;10.35;;;5.00;;
26413;SDS011;14108;53.668;10.288;2022-12-07T07:55:17;9.50;;;4.72;;
26413;SDS011;14108;53.668;10.288;2022-12-07T07:57:44;7.30;;;4.22;;
26413;SDS011;14108;53.668;10.288;2022-12-07T08:00:13;6.30;;;3.95;;
26413;SDS011;14108;53.668;10.288;2022-12-07T08:02:42;5.93;;;3.90;;
26413;SDS011;14108;53.668;10.288;2022-12-07T08:05:09;6.30;;;4.22;;
26413;SDS011;14108;53.668;10.288;2022-12-07T08:07:37;10.00;;;3.55;;
26413;SDS011;14108;53.668;10.288;2022-12-07T08:10:05;12.23;;;3.80;;
26413;SDS011;14108;53.668;10.288;2022-12-07T08:12:36;5.87;;;3.33;;
26413;SDS011;14108;53.668;10.288;2022-12-07T08:15:36;7.43;;;3.35;;
26413;SDS011;14108;53.668;10.288;2022-12-07T08:18:04;8.40;;;3.70;;
26413;SDS011;14108;53.668;10.288;2022-12-07T08:20:33;7.35;;;3.03;;
26413;SDS011;14108;53.668;10.288;2022-12-07T08:23:01;6.40;;;3.20;;
26413;SDS011;14108;53.668;10.288;2022-12-07T08:25:29;4.70;;;2.97;;
26413;SDS011;14108;53.668;10.288;2022-12-07T08:27:57;8.15;;;3.58;;
26413;SDS011;14108;53.668;10.288;2022-12-07T08:30:26;5.00;;;2.60;;
26413;SDS011;14108;53.668;10.288;2022-12-07T08:32:53;9.00;;;2.92;;
26413;SDS011;14108;53.668;10.288;2022-12-07T08:35:21;5.80;;;2.80;;
26413;SDS011;14108;53.668;10.288;2022-12-07T08:37:48;6.28;;;3.20;;
26413;SDS011;14108;53.668;10.288;2022-12-07T08:40:16;7.25;;;2.42;;
26413;SDS011;14108;53.668;10.288;2022-12-07T08:42:47;8.55;;;3.37;;
26413;SDS011;14108;53.668;10.288;2022-12-07T08:45:15;3.70;;;2.55;;
26413;SDS011;14108;53.668;10.288;2022-12-07T08:47:44;7.37;;;2.60;;
26413;SDS011;14108;53.668;10.288;2022-12-07T08:50:17;5.68;;;3.10;;
26413;SDS011;14108;53.668;10.288;2022-12-07T08:52:44;8.40;;;2.92;;
26413;SDS011;14108;53.668;10.288;2022-12-07T08:55:17;5.32;;;2.50;;
26413;SDS011;14108;53.668;10.288;2022-12-07T08:57:44;8.38;;;2.60;;
26413;SDS011;14108;53.668;10.288;2022-12-07T09:00:13;5.28;;;2.60;;
26413;SDS011;14108;53.668;10.288;2022-12-07T09:02:42;5.28;;;3.17;;
26413;SDS011;14108;53.668;10.288;2022-12-07T09:05:10;10.65;;;3.08;;
26413;SDS011;14108;53.668;10.288;2022-12-07T09:07:40;5.47;;;3.12;;
26413;SDS011;14108;53.668;10.288;2022-12-07T09:10:10;3.72;;;2.50;;
26413;SDS011;14108;53.668;10.288;2022-12-07T09:12:37;7.15;;;2.90;;
26413;SDS011;14108;53.668;10.288;2022-12-07T09:15:06;5.70;;;2.50;;
26413;SDS011;14108;53.668;10.288;2022-12-07T09:17:34;13.18;;;3.97;;
26413;SDS011;14108;53.668;10.288;2022-12-07T09:20:02;9.90;;;2.78;;
26413;SDS011;14108;53.668;10.288;2022-12-07T09:22:31;7.70;;;2.87;;
26413;SDS011;14108;53.668;10.288;2022-12-07T09:24:58;8.80;;;3.17;;
26413;SDS011;14108;53.668;10.288;2022-12-07T09:27:26;6.97;;;3.17;;
26413;SDS011;14108;53.668;10.288;2022-12-07T09:29:54;6.32;;;2.28;;
26413;SDS011;14108;53.668;10.288;2022-12-07T09:32:21;8.15;;;3.03;;
26413;SDS011;14108;53.668;10.288;2022-12-07T09:34:49;8.90;;;2.67;;
26413;SDS011;14108;53.668;10.288;2022-12-07T09:37:16;7.18;;;2.55;;
26413;SDS011;14108;53.668;10.288;2022-12-07T09:39:43;8.27;;;2.53;;
26413;SDS011;14108;53.668;10.288;2022-12-07T09:42:25;5.35;;;2.37;;
26413;SDS011;14108;53.668;10.288;2022-12-07T09:44:55;4.20;;;2.35;;
26413;SDS011;14108;53.668;10.288;2022-12-07T09:47:23;5.10;;;2.22;;
26413;SDS011;14108;53.668;10.288;2022-12-07T09:49:51;8.68;;;2.30;;
26413;SDS011;14108;53.668;10.288;2022-12-07T09:52:20;10.18;;;2.70;;
26413;SDS011;14108;53.668;10.288;2022-12-07T09:54:52;6.20;;;2.20;;
26413;SDS011;14108;53.668;10.288;2022-12-07T09:57:21;7.18;;;2.17;;
26413;SDS011;14108;53.668;10.288;2022-12-07T09:59:54;7.05;;;2.28;;
26413;SDS011;14108;53.668;10.288;2022-12-07T10:02:28;11.20;;;2.35;;
26413;SDS011;14108;53.668;10.288;2022-12-07T10:05:01;10.73;;;2.50;;
26413;SDS011;14108;53.668;10.288;2022-12-07T10:07:32;5.47;;;2.50;;
26413;SDS011;14108;53.668;10.288;2022-12-07T10:09:59;10.40;;;3.87;;
26413;SDS011;14108;53.668;10.288;2022-12-07T10:12:28;9.02;;;2.70;;
26413;SDS011;14108;53.668;10.288;2022-12-07T10:14:57;3.58;;;2.10;;
26413;SDS011;14108;53.668;10.288;2022-12-07T10:17:31;11.35;;;2.62;;
26413;SDS011;14108;53.668;10.288;2022-12-07T10:23:01;7.07;;;2.50;;
26413;SDS011;14108;53.668;10.288;2022-12-07T10:25:31;13.43;;;2.90;;
26413;SDS011;14108;53.668;10.288;2022-12-07T10:28:01;7.35;;;3.20;;
26413;SDS011;14108;53.668;10.288;2022-12-07T10:30:46;9.82;;;2.20;;
26413;SDS011;14108;53.668;10.288;2022-12-07T10:33:28;4.62;;;2.00;;
26413;SDS011;14108;53.668;10.288;2022-12-07T10:35:56;13.02;;;3.00;;
26413;SDS011;14108;53.668;10.288;2022-12-07T10:38:25;7.12;;;2.10;;
26413;SDS011;14108;53.668;10.288;2022-12-07T10:41:05;7.82;;;2.20;;
26413;SDS011;14108;53.668;10.288;2022-12-07T10:43:33;8.38;;;2.30;;
26413;SDS011;14108;53.668;10.288;2022-12-07T10:46:07;8.10;;;2.33;;
26413;SDS011;14108;53.668;10.288;2022-12-07T10:49:31;8.73;;;2.08;;
26413;SDS011;14108;53.668;10.288;2022-12-07T10:52:23;8.38;;;2.40;;
26413;SDS011;14108;53.668;10.288;2022-12-07T10:55:06;7.87;;;1.92;;
26413;SDS011;14108;53.668;10.288;2022-12-07T10:57:42;9.40;;;2.60;;
26413;SDS011;14108;53.668;10.288;2022-12-07T11:00:18;5.53;;;1.87;;
26413;SDS011;14108;53.668;10.288;2022-12-07T11:02:52;7.70;;;1.85;;
26413;SDS011;14108;53.668;10.288;2022-12-07T11:05:49;8.10;;;2.25;;
26413;SDS011;14108;53.668;10.288;2022-12-07T11:08:23;4.55;;;2.10;;
26413;SDS011;14108;53.668;10.288;2022-12-07T11:11:04;6.30;;;1.87;;
26413;SDS011;14108;53.668;10.288;2022-12-07T11:13:39;7.05;;;2.20;;
26413;SDS011;14108;53.668;10.288;2022-12-07T11:16:18;7.87;;;2.37;;
26413;SDS011;14108;53.668;10.288;2022-12-07T11:18:52;6.70;;;2.95;;
26413;SDS011;14108;53.668;10.288;2022-12-07T11:21:34;8.77;;;2.00;;
26413;SDS011;14108;53.668;10.288;2022-12-07T11:24:10;6.78;;;1.87;;
26413;SDS011;14108;53.668;10.288;2022-12-07T11:26:43;5.25;;;1.90;;
26413;SDS011;14108;53.668;10.288;2022-12-07T11:32:25;12.80;;;2.47;;
26413;SDS011;14108;53.668;10.288;2022-12-07T11:35:07;11.73;;;2.22;;
26413;SDS011;14108;53.668;10.288;2022-12-07T11:37:38;8.18;;;2.17;;
26413;SDS011;14108;53.668;10.288;2022-12-07T11:40:13;6.57;;;1.95;;
26413;SDS011;14108;53.668;10.288;2022-12-07T11:42:46;15.98;;;2.28;;
26413;SDS011;14108;53.668;10.288;2022-12-07T11:45:19;9.30;;;2.10;;
26413;SDS011;14108;53.668;10.288;2022-12-07T11:47:51;7.68;;;1.60;;
26413;SDS011;14108;53.668;10.288;2022-12-07T11:50:23;9.70;;;1.87;;
26413;SDS011;14108;53.668;10.288;2022-12-07T11:52:56;10.68;;;1.77;;
26413;SDS011;14108;53.668;10.288;2022-12-07T11:55:28;9.82;;;2.45;;
26413;SDS011;14108;53.668;10.288;2022-12-07T11:58:05;8.02;;;1.60;;
26413;SDS011;14108;53.668;10.288;2022-12-07T12:00:46;14.67;;;2.23;;
26413;SDS011;14108;53.668;10.288;2022-12-07T12:03:17;7.75;;;2.03;;
26413;SDS011;14108;53.668;10.288;2022-12-07T12:05:55;3.35;;;1.67;;
26413;SDS011;14108;53.668;10.288;2022-12-07T12:08:24;12.05;;;1.98;;
26413;SDS011;14108;53.668;10.288;2022-12-07T12:10:55;7.37;;;2.67;;
26413;SDS011;14108;53.668;10.288;2022-12-07T12:13:34;8.65;;;1.95;;
26413;SDS011;14108;53.668;10.288;2022-12-07T12:16:26;7.43;;;1.90;;
26413;SDS011;14108;53.668;10.288;2022-12-07T12:19:14;9.25;;;2.67;;
26413;SDS011;14108;53.668;10.288;2022-12-07T12:21:54;7.18;;;1.50;;
26413;SDS011;14108;53.668;10.288;2022-12-07T12:24:26;7.80;;;1.80;;
26413;SDS011;14108;53.668;10.288;2022-12-07T12:26:56;7.87;;;1.70;;
26413;SDS011;14108;53.668;10.288;2022-12-07T12:29:30;9.10;;;1.87;;
26413;SDS011;14108;53.668;10.288;2022-12-07T12:32:07;4.78;;;1.73;;
26413;SDS011;14108;53.668;10.288;2022-12-07T12:34:40;6.22;;;1.67;;
26413;SDS011;14108;53.668;10.288;2022-12-07T12:37:39;7.05;;;1.52;;
26413;SDS011;14108;53.668;10.288;2022-12-07T12:52:57;7.78;;;1.83;;
26413;SDS011;14108;53.668;10.288;2022-12-07T12:55:58;1.77;;;1.10;;
26413;SDS011;14108;53.668;10.288;2022-12-07T12:58:51;5.87;;;1.50;;
26413;SDS011;14108;53.668;10.288;2022-12-07T13:01:49;7.35;;;1.40;;
26413;SDS011;14108;53.668;10.288;2022-12-07T13:10:22;6.40;;;1.30;;
26413;SDS011;14108;53.668;10.288;2022-12-07T13:13:00;2.92;;;1.37;;
26413;SDS011;14108;53.668;10.288;2022-12-07T13:15:32;25.33;;;7.00;;
26413;SDS011;14108;53.668;10.288;2022-12-07T13:18:02;9.13;;;2.00;;
26413;SDS011;14108;53.668;10.288;2022-12-07T13:20:48;5.25;;;1.80;;
26413;SDS011;14108;53.668;10.288;2022-12-07T13:23:25;8.68;;;1.35;;
26413;SDS011;14108;53.668;10.288;2022-12-07T13:26:03;4.47;;;1.48;;
26413;SDS011;14108;53.668;10.288;2022-12-07T13:28:35;4.18;;;1.27;;
26413;SDS011;14108;53.668;10.288;2022-12-07T13:31:13;7.70;;;1.60;;
26413;SDS011;14108;53.668;10.288;2022-12-07T13:33:52;4.35;;;1.27;;
26413;SDS011;14108;53.668;10.288;2022-12-07T13:36:20;4.15;;;1.05;;
26413;SDS011;14108;53.668;10.288;2022-12-07T13:38:50;4.32;;;1.48;;
26413;SDS011;14108;53.668;10.288;2022-12-07T13:41:20;6.45;;;1.50;;
26413;SDS011;14108;53.668;10.288;2022-12-07T13:43:52;2.33;;;1.20;;
26413;SDS011;14108;53.668;10.288;2022-12-07T13:46:25;4.93;;;1.10;;
26413;SDS011;14108;53.668;10.288;2022-12-07T13:48:58;4.47;;;1.52;;
26413;SDS011;14108;53.668;10.288;2022-12-07T13:51:25;3.42;;;1.85;;
26413;SDS011;14108;53.668;10.288;2022-12-07T13:53:54;7.95;;;1.30;;
26413;SDS011;14108;53.668;10.288;2022-12-07T13:56:26;4.12;;;1.37;;
26413;SDS011;14108;53.668;10.288;2022-12-07T13:58:58;3.20;;;1.60;;
26413;SDS011;14108;53.668;10.288;2022-12-07T14:01:25;4.40;;;1.42;;
26413;SDS011;14108;53.668;10.288;2022-12-07T14:03:54;6.95;;;2.37;;
26413;SDS011;14108;53.668;10.288;2022-12-07T14:06:23;4.28;;;1.95;;
26413;SDS011;14108;53.668;10.288;2022-12-07T14:09:06;4.10;;;1.70;;
26413;SDS011;14108;53.668;10.288;2022-12-07T14:11:34;5.45;;;1.20;;
26413;SDS011;14108;53.668;10.288;2022-12-07T14:14:02;4.60;;;1.50;;
26413;SDS011;14108;53.668;10.288;2022-12-07T14:16:31;2.35;;;1.00;;
26413;SDS011;14108;53.668;10.288;2022-12-07T14:19:01;3.78;;;1.50;;
26413;SDS011;14108;53.668;10.288;2022-12-07T14:21:30;7.43;;;3.67;;
26413;SDS011;14108;53.668;10.288;2022-12-07T14:26:54;5.35;;;2.17;;
26413;SDS011;14108;53.668;10.288;2022-12-07T14:29:22;19.98;;;3.97;;
26413;SDS011;14108;53.668;10.288;2022-12-07T14:31:57;5.12;;;2.58;;
26413;SDS011;14108;53.668;10.288;2022-12-07T14:34:52;7.18;;;2.45;;
26413;SDS011;14108;53.668;10.288;2022-12-07T14:37:21;8.75;;;2.35;;
26413;SDS011;14108;53.668;10.288;2022-12-07T14:39:49;2.90;;;2.20;;
26413;SDS011;14108;53.668;10.288;2022-12-07T14:42:16;5.28;;;2.17;;
26413;SDS011;14108;53.668;10.288;2022-12-07T14:44:43;3.83;;;2.10;;
26413;SDS011;14108;53.668;10.288;2022-12-07T14:47:11;4.57;;;1.95;;
26413;SDS011;14108;53.668;10.288;2022-12-07T14:49:38;3.33;;;1.92;;
26413;SDS011;14108;53.668;10.288;2022-12-07T14:52:05;4.93;;;2.12;;
26413;SDS011;14108;53.668;10.288;2022-12-07T14:54:38;6.72;;;3.00;;
26413;SDS011;14108;53.668;10.288;2022-12-07T14:57:07;4.80;;;2.60;;
26413;SDS011;14108;53.668;10.288;2022-12-07T14:59:36;4.97;;;2.33;;
26413;SDS011;14108;53.668;10.288;2022-12-07T15:02:03;2.53;;;1.52;;
26413;SDS011;14108;53.668;10.288;2022-12-07T15:04:31;3.97;;;1.90;;
26413;SDS011;14108;53.668;10.288;2022-12-07T15:06:58;3.92;;;1.52;;
26413;SDS011;14108;53.668;10.288;2022-12-07T15:09:27;4.43;;;1.95;;
26413;SDS011;14108;53.668;10.288;2022-12-07T15:11:54;6.30;;;2.50;;
26413;SDS011;14108;53.668;10.288;2022-12-07T15:14:22;7.62;;;3.10;;
26413;SDS011;14108;53.668;10.288;2022-12-07T15:16:49;7.18;;;2.22;;
26413;SDS011;14108;53.668;10.288;2022-12-07T15:19:17;3.53;;;1.70;;
26413;SDS011;14108;53.668;10.288;2022-12-07T15:21:45;4.12;;;2.03;;
26413;SDS011;14108;53.668;10.288;2022-12-07T15:24:12;4.97;;;1.83;;
26413;SDS011;14108;53.668;10.288;2022-12-07T15:26:40;6.10;;;1.90;;
26413;SDS011;14108;53.668;10.288;2022-12-07T15:29:08;3.28;;;1.60;;